sensor_id;sensor_type;location;lat;lon;timestamp;P1;durP1;ratioP1;P2;durP2;ratioP2
2267;SDS011;11052;43.338;25.502;2024-02-26T00:01:19;1.20;;;0.97;;
2267;SDS011;11052;43.338;25.502;2024-02-26T00:03:47;2.40;;;1.07;;
2267;SDS011;11052;43.338;25.502;2024-02-26T00:06:15;2.93;;;0.90;;
2267;SDS011;11052;43.338;25.502;2024-02-26T00:08:43;1.30;;;1.20;;
2267;SDS011;11052;43.338;25.502;2024-02-26T00:11:10;1.70;;;1.30;;
2267;SDS011;11052;43.338;25.502;2024-02-26T00:13:37;1.20;;;0.90;;
2267;SDS011;11052;43.338;25.502;2024-02-26T00:16:05;0.90;;;0.80;;
2267;SDS011;11052;43.338;25.502;2024-02-26T00:18:32;1.40;;;0.80;;
2267;SDS011;11052;43.338;25.502;2024-02-26T00:21:01;1.10;;;0.90;;
2267;SDS011;11052;43.338;25.502;2024-02-26T00:23:29;1.70;;;1.23;;
2267;SDS011;11052;43.338;25.502;2024-02-26T00:25:56;1.20;;;0.80;;
2267;SDS011;11052;43.338;25.502;2024-02-26T00:28:23;1.30;;;1.20;;
2267;SDS011;11052;43.338;25.502;2024-02-26T00:30:52;1.43;;;1.30;;
2267;SDS011;11052;43.338;25.502;2024-02-26T00:33:21;1.30;;;0.73;;
2267;SDS011;11052;43.338;25.502;2024-02-26T00:35:48;1.10;;;0.83;;
2267;SDS011;11052;43.338;25.502;2024-02-26T00:38:17;3.13;;;1.20;;
2267;SDS011;11052;43.338;25.502;2024-02-26T00:40:44;1.20;;;0.90;;
2267;SDS011;11052;43.338;25.502;2024-02-26T00:43:11;1.53;;;1.43;;
2267;SDS011;11052;43.338;25.502;2024-02-26T00:45:38;0.90;;;0.70;;
2267;SDS011;11052;43.338;25.502;2024-02-26T00:48:05;1.10;;;0.80;;
2267;SDS011;11052;43.338;25.502;2024-02-26T00:50:33;1.83;;;1.40;;
2267;SDS011;11052;43.338;25.502;2024-02-26T00:53:01;1.13;;;0.83;;
2267;SDS011;11052;43.338;25.502;2024-02-26T00:55:30;2.30;;;1.13;;
2267;SDS011;11052;43.338;25.502;2024-02-26T00:57:57;1.37;;;1.20;;
2267;SDS011;11052;43.338;25.502;2024-02-26T01:00:24;3.33;;;1.17;;
2267;SDS011;11052;43.338;25.502;2024-02-26T01:02:51;0.87;;;0.67;;
2267;SDS011;11052;43.338;25.502;2024-02-26T01:05:18;0.87;;;0.70;;
2267;SDS011;11052;43.338;25.502;2024-02-26T01:07:45;1.83;;;0.80;;
2267;SDS011;11052;43.338;25.502;2024-02-26T01:10:12;1.53;;;1.43;;
2267;SDS011;11052;43.338;25.502;2024-02-26T01:12:41;1.40;;;1.10;;
2267;SDS011;11052;43.338;25.502;2024-02-26T01:15:08;1.20;;;0.93;;
2267;SDS011;11052;43.338;25.502;2024-02-26T01:17:36;0.90;;;0.70;;
2267;SDS011;11052;43.338;25.502;2024-02-26T01:20:04;1.27;;;0.90;;
2267;SDS011;11052;43.338;25.502;2024-02-26T01:22:34;1.30;;;0.90;;
2267;SDS011;11052;43.338;25.502;2024-02-26T01:25:01;0.90;;;0.67;;
2267;SDS011;11052;43.338;25.502;2024-02-26T01:27:28;1.67;;;0.80;;
2267;SDS011;11052;43.338;25.502;2024-02-26T01:29:56;1.10;;;0.90;;
2267;SDS011;11052;43.338;25.502;2024-02-26T01:32:23;0.80;;;0.60;;
2267;SDS011;11052;43.338;25.502;2024-02-26T01:34:50;0.90;;;0.80;;
2267;SDS011;11052;43.338;25.502;2024-02-26T01:37:17;1.10;;;0.97;;
2267;SDS011;11052;43.338;25.502;2024-02-26T01:39:45;1.40;;;0.70;;
2267;SDS011;11052;43.338;25.502;2024-02-26T01:42:12;1.10;;;0.70;;
2267;SDS011;11052;43.338;25.502;2024-02-26T01:44:39;1.67;;;0.93;;
2267;SDS011;11052;43.338;25.502;2024-02-26T01:47:09;1.00;;;0.90;;
2267;SDS011;11052;43.338;25.502;2024-02-26T01:49:38;3.10;;;1.80;;
2267;SDS011;11052;43.338;25.502;2024-02-26T01:52:06;0.90;;;0.70;;
2267;SDS011;11052;43.338;25.502;2024-02-26T01:54:35;1.70;;;1.60;;
2267;SDS011;11052;43.338;25.502;2024-02-26T01:57:04;3.37;;;1.10;;
2267;SDS011;11052;43.338;25.502;2024-02-26T01:59:32;0.80;;;0.60;;
2267;SDS011;11052;43.338;25.502;2024-02-26T02:02:01;1.00;;;0.80;;
2267;SDS011;11052;43.338;25.502;2024-02-26T02:04:33;1.37;;;0.90;;
2267;SDS011;11052;43.338;25.502;2024-02-26T02:07:01;1.30;;;1.00;;
2267;SDS011;11052;43.338;25.502;2024-02-26T02:09:28;0.80;;;0.60;;
2267;SDS011;11052;43.338;25.502;2024-02-26T02:11:56;1.13;;;0.87;;
2267;SDS011;11052;43.338;25.502;2024-02-26T02:14:24;1.33;;;0.83;;
2267;SDS011;11052;43.338;25.502;2024-02-26T02:16:52;1.10;;;1.00;;
2267;SDS011;11052;43.338;25.502;2024-02-26T02:19:19;0.90;;;0.63;;
2267;SDS011;11052;43.338;25.502;2024-02-26T02:21:47;1.70;;;0.83;;
2267;SDS011;11052;43.338;25.502;2024-02-26T02:24:14;1.00;;;0.80;;
2267;SDS011;11052;43.338;25.502;2024-02-26T02:26:42;1.00;;;0.90;;
2267;SDS011;11052;43.338;25.502;2024-02-26T02:29:09;0.90;;;0.60;;
2267;SDS011;11052;43.338;25.502;2024-02-26T02:31:37;3.00;;;1.10;;
2267;SDS011;11052;43.338;25.502;2024-02-26T02:34:04;0.90;;;0.80;;
2267;SDS011;11052;43.338;25.502;2024-02-26T02:36:32;1.30;;;0.83;;
2267;SDS011;11052;43.338;25.502;2024-02-26T02:39:00;0.90;;;0.60;;
2267;SDS011;11052;43.338;25.502;2024-02-26T02:41:28;1.73;;;1.30;;
2267;SDS011;11052;43.338;25.502;2024-02-26T02:43:55;1.87;;;1.00;;
2267;SDS011;11052;43.338;25.502;2024-02-26T02:46:22;2.13;;;1.03;;
2267;SDS011;11052;43.338;25.502;2024-02-26T02:48:49;2.67;;;0.83;;
2267;SDS011;11052;43.338;25.502;2024-02-26T02:51:16;0.90;;;0.80;;
2267;SDS011;11052;43.338;25.502;2024-02-26T02:53:44;1.20;;;0.83;;
2267;SDS011;11052;43.338;25.502;2024-02-26T02:56:12;1.20;;;0.87;;
2267;SDS011;11052;43.338;25.502;2024-02-26T02:58:39;1.10;;;0.80;;
2267;SDS011;11052;43.338;25.502;2024-02-26T03:01:06;3.17;;;0.97;;
2267;SDS011;11052;43.338;25.502;2024-02-26T03:03:33;1.20;;;0.90;;
2267;SDS011;11052;43.338;25.502;2024-02-26T03:06:02;1.23;;;1.00;;
2267;SDS011;11052;43.338;25.502;2024-02-26T03:08:29;0.90;;;0.70;;
2267;SDS011;11052;43.338;25.502;2024-02-26T03:10:58;1.10;;;0.80;;
2267;SDS011;11052;43.338;25.502;2024-02-26T03:13:27;1.00;;;0.90;;
2267;SDS011;11052;43.338;25.502;2024-02-26T03:15:54;1.50;;;1.00;;
2267;SDS011;11052;43.338;25.502;2024-02-26T03:18:21;0.90;;;0.57;;
2267;SDS011;11052;43.338;25.502;2024-02-26T03:20:48;1.30;;;1.20;;
2267;SDS011;11052;43.338;25.502;2024-02-26T03:23:15;1.47;;;0.87;;
2267;SDS011;11052;43.338;25.502;2024-02-26T03:25:44;0.80;;;0.60;;
2267;SDS011;11052;43.338;25.502;2024-02-26T03:28:13;0.90;;;0.70;;
2267;SDS011;11052;43.338;25.502;2024-02-26T03:30:41;1.40;;;1.30;;
2267;SDS011;11052;43.338;25.502;2024-02-26T03:33:08;1.63;;;0.90;;
2267;SDS011;11052;43.338;25.502;2024-02-26T03:35:36;1.20;;;0.80;;
2267;SDS011;11052;43.338;25.502;2024-02-26T03:38:03;1.00;;;0.70;;
2267;SDS011;11052;43.338;25.502;2024-02-26T03:40:30;1.57;;;1.17;;
2267;SDS011;11052;43.338;25.502;2024-02-26T03:42:57;1.00;;;0.67;;
2267;SDS011;11052;43.338;25.502;2024-02-26T03:45:25;1.40;;;0.83;;
2267;SDS011;11052;43.338;25.502;2024-02-26T03:47:54;1.67;;;0.97;;
2267;SDS011;11052;43.338;25.502;2024-02-26T03:50:21;1.00;;;0.80;;
2267;SDS011;11052;43.338;25.502;2024-02-26T03:52:48;1.97;;;1.17;;
2267;SDS011;11052;43.338;25.502;2024-02-26T03:55:15;1.30;;;1.20;;
2267;SDS011;11052;43.338;25.502;2024-02-26T03:57:49;1.37;;;1.13;;
2267;SDS011;11052;43.338;25.502;2024-02-26T04:00:17;1.43;;;0.77;;
2267;SDS011;11052;43.338;25.502;2024-02-26T04:02:46;2.17;;;0.90;;
2267;SDS011;11052;43.338;25.502;2024-02-26T04:05:14;1.67;;;1.00;;
2267;SDS011;11052;43.338;25.502;2024-02-26T04:07:42;0.80;;;0.60;;
2267;SDS011;11052;43.338;25.502;2024-02-26T04:10:12;0.80;;;0.70;;
2267;SDS011;11052;43.338;25.502;2024-02-26T04:12:40;0.93;;;0.80;;
2267;SDS011;11052;43.338;25.502;2024-02-26T04:15:08;7.40;;;1.80;;
2267;SDS011;11052;43.338;25.502;2024-02-26T04:17:36;2.23;;;1.47;;
2267;SDS011;11052;43.338;25.502;2024-02-26T04:20:04;1.10;;;0.77;;
2267;SDS011;11052;43.338;25.502;2024-02-26T04:22:34;1.00;;;0.83;;
2267;SDS011;11052;43.338;25.502;2024-02-26T04:25:01;3.20;;;1.23;;
2267;SDS011;11052;43.338;25.502;2024-02-26T04:27:28;1.73;;;1.63;;
2267;SDS011;11052;43.338;25.502;2024-02-26T04:29:58;0.90;;;0.77;;
2267;SDS011;11052;43.338;25.502;2024-02-26T04:32:25;0.90;;;0.60;;
2267;SDS011;11052;43.338;25.502;2024-02-26T04:34:53;0.90;;;0.67;;
2267;SDS011;11052;43.338;25.502;2024-02-26T04:37:20;1.10;;;0.87;;
2267;SDS011;11052;43.338;25.502;2024-02-26T04:39:49;0.90;;;0.70;;
2267;SDS011;11052;43.338;25.502;2024-02-26T04:42:16;0.83;;;0.53;;
2267;SDS011;11052;43.338;25.502;2024-02-26T04:44:43;1.00;;;0.80;;
2267;SDS011;11052;43.338;25.502;2024-02-26T04:47:10;1.57;;;0.80;;
2267;SDS011;11052;43.338;25.502;2024-02-26T04:49:38;1.10;;;0.90;;
2267;SDS011;11052;43.338;25.502;2024-02-26T04:52:05;1.63;;;0.90;;
2267;SDS011;11052;43.338;25.502;2024-02-26T04:54:33;1.37;;;1.17;;
2267;SDS011;11052;43.338;25.502;2024-02-26T04:57:01;2.00;;;1.27;;
2267;SDS011;11052;43.338;25.502;2024-02-26T04:59:30;5.60;;;1.83;;
2267;SDS011;11052;43.338;25.502;2024-02-26T05:01:57;1.10;;;1.00;;
2267;SDS011;11052;43.338;25.502;2024-02-26T05:04:24;2.63;;;1.13;;
2267;SDS011;11052;43.338;25.502;2024-02-26T05:06:51;1.70;;;0.90;;
2267;SDS011;11052;43.338;25.502;2024-02-26T05:09:18;1.43;;;0.87;;
2267;SDS011;11052;43.338;25.502;2024-02-26T05:11:45;2.73;;;1.27;;
2267;SDS011;11052;43.338;25.502;2024-02-26T05:14:14;3.73;;;2.20;;
2267;SDS011;11052;43.338;25.502;2024-02-26T05:16:41;1.00;;;0.90;;
2267;SDS011;11052;43.338;25.502;2024-02-26T05:19:08;0.87;;;0.60;;
2267;SDS011;11052;43.338;25.502;2024-02-26T05:21:35;3.33;;;0.90;;
2267;SDS011;11052;43.338;25.502;2024-02-26T05:24:02;7.63;;;1.60;;
2267;SDS011;11052;43.338;25.502;2024-02-26T05:26:29;1.33;;;1.23;;
2267;SDS011;11052;43.338;25.502;2024-02-26T05:28:56;1.03;;;0.80;;
2267;SDS011;11052;43.338;25.502;2024-02-26T05:31:26;1.20;;;1.10;;
2267;SDS011;11052;43.338;25.502;2024-02-26T05:33:53;1.97;;;1.33;;
2267;SDS011;11052;43.338;25.502;2024-02-26T05:36:21;2.50;;;0.90;;
2267;SDS011;11052;43.338;25.502;2024-02-26T05:38:48;1.13;;;0.97;;
2267;SDS011;11052;43.338;25.502;2024-02-26T05:41:16;1.20;;;0.80;;
2267;SDS011;11052;43.338;25.502;2024-02-26T05:43:48;1.20;;;0.73;;
2267;SDS011;11052;43.338;25.502;2024-02-26T05:46:16;1.00;;;0.90;;
2267;SDS011;11052;43.338;25.502;2024-02-26T05:48:44;1.47;;;1.37;;
2267;SDS011;11052;43.338;25.502;2024-02-26T05:51:13;1.00;;;0.77;;
2267;SDS011;11052;43.338;25.502;2024-02-26T05:53:41;1.47;;;0.93;;
2267;SDS011;11052;43.338;25.502;2024-02-26T05:56:08;2.00;;;1.80;;
2267;SDS011;11052;43.338;25.502;2024-02-26T05:58:35;1.50;;;1.03;;
2267;SDS011;11052;43.338;25.502;2024-02-26T06:01:03;1.20;;;0.87;;
2267;SDS011;11052;43.338;25.502;2024-02-26T06:03:30;2.00;;;1.10;;
2267;SDS011;11052;43.338;25.502;2024-02-26T06:05:59;4.60;;;1.47;;
2267;SDS011;11052;43.338;25.502;2024-02-26T06:08:26;2.67;;;1.47;;
2267;SDS011;11052;43.338;25.502;2024-02-26T06:10:53;0.90;;;0.80;;
2267;SDS011;11052;43.338;25.502;2024-02-26T06:13:20;0.90;;;0.70;;
2267;SDS011;11052;43.338;25.502;2024-02-26T06:15:47;1.87;;;0.90;;
2267;SDS011;11052;43.338;25.502;2024-02-26T06:18:14;1.47;;;1.30;;
2267;SDS011;11052;43.338;25.502;2024-02-26T06:20:41;1.33;;;1.13;;
2267;SDS011;11052;43.338;25.502;2024-02-26T06:23:09;1.83;;;1.27;;
2267;SDS011;11052;43.338;25.502;2024-02-26T06:25:36;1.37;;;0.90;;
2267;SDS011;11052;43.338;25.502;2024-02-26T06:28:04;22.53;;;1.97;;
2267;SDS011;11052;43.338;25.502;2024-02-26T06:30:31;1.30;;;0.77;;
2267;SDS011;11052;43.338;25.502;2024-02-26T06:32:58;2.00;;;1.10;;
2267;SDS011;11052;43.338;25.502;2024-02-26T06:35:26;0.97;;;0.80;;
2267;SDS011;11052;43.338;25.502;2024-02-26T06:37:53;1.37;;;0.70;;
2267;SDS011;11052;43.338;25.502;2024-02-26T06:40:21;0.83;;;0.67;;
2267;SDS011;11052;43.338;25.502;2024-02-26T06:42:48;0.90;;;0.60;;
2267;SDS011;11052;43.338;25.502;2024-02-26T06:45:16;1.00;;;0.80;;
2267;SDS011;11052;43.338;25.502;2024-02-26T06:47:43;2.13;;;1.80;;
2267;SDS011;11052;43.338;25.502;2024-02-26T06:50:11;1.50;;;0.90;;
2267;SDS011;11052;43.338;25.502;2024-02-26T06:52:39;0.80;;;0.60;;
2267;SDS011;11052;43.338;25.502;2024-02-26T06:55:07;2.10;;;1.07;;
2267;SDS011;11052;43.338;25.502;2024-02-26T06:57:36;1.40;;;1.27;;
2267;SDS011;11052;43.338;25.502;2024-02-26T07:00:03;1.17;;;1.00;;
2267;SDS011;11052;43.338;25.502;2024-02-26T07:02:31;1.50;;;1.10;;
2267;SDS011;11052;43.338;25.502;2024-02-26T07:04:58;2.20;;;1.30;;
2267;SDS011;11052;43.338;25.502;2024-02-26T07:07:25;4.00;;;1.63;;
2267;SDS011;11052;43.338;25.502;2024-02-26T07:09:52;3.10;;;1.47;;
2267;SDS011;11052;43.338;25.502;2024-02-26T07:12:19;6.27;;;2.20;;
2267;SDS011;11052;43.338;25.502;2024-02-26T07:14:48;4.67;;;2.40;;
2267;SDS011;11052;43.338;25.502;2024-02-26T07:17:17;4.20;;;2.70;;
2267;SDS011;11052;43.338;25.502;2024-02-26T07:19:44;3.17;;;1.73;;
2267;SDS011;11052;43.338;25.502;2024-02-26T07:22:11;11.23;;;2.90;;
2267;SDS011;11052;43.338;25.502;2024-02-26T07:24:39;2.53;;;1.60;;
2267;SDS011;11052;43.338;25.502;2024-02-26T07:27:06;1.67;;;1.57;;
2267;SDS011;11052;43.338;25.502;2024-02-26T07:29:33;6.63;;;2.80;;
2267;SDS011;11052;43.338;25.502;2024-02-26T07:32:02;6.13;;;1.93;;
2267;SDS011;11052;43.338;25.502;2024-02-26T07:34:29;5.10;;;1.80;;
2267;SDS011;11052;43.338;25.502;2024-02-26T07:36:56;4.67;;;2.77;;
2267;SDS011;11052;43.338;25.502;2024-02-26T07:39:23;7.47;;;2.10;;
2267;SDS011;11052;43.338;25.502;2024-02-26T07:41:50;5.80;;;3.30;;
2267;SDS011;11052;43.338;25.502;2024-02-26T07:44:18;3.80;;;2.50;;
2267;SDS011;11052;43.338;25.502;2024-02-26T07:46:45;3.63;;;2.43;;
2267;SDS011;11052;43.338;25.502;2024-02-26T07:49:13;4.53;;;1.90;;
2267;SDS011;11052;43.338;25.502;2024-02-26T07:51:40;3.23;;;1.30;;
2267;SDS011;11052;43.338;25.502;2024-02-26T07:54:08;5.97;;;2.07;;
2267;SDS011;11052;43.338;25.502;2024-02-26T07:56:35;2.27;;;1.90;;
2267;SDS011;11052;43.338;25.502;2024-02-26T07:59:02;6.90;;;1.10;;
2267;SDS011;11052;43.338;25.502;2024-02-26T08:01:29;2.80;;;1.70;;
2267;SDS011;11052;43.338;25.502;2024-02-26T08:03:56;3.73;;;1.20;;
2267;SDS011;11052;43.338;25.502;2024-02-26T08:06:24;1.00;;;0.80;;
2267;SDS011;11052;43.338;25.502;2024-02-26T08:08:52;2.20;;;1.67;;
2267;SDS011;11052;43.338;25.502;2024-02-26T08:11:19;2.77;;;1.53;;
2267;SDS011;11052;43.338;25.502;2024-02-26T08:13:46;5.20;;;2.67;;
2267;SDS011;11052;43.338;25.502;2024-02-26T08:16:13;3.10;;;2.33;;
2267;SDS011;11052;43.338;25.502;2024-02-26T08:18:40;2.80;;;1.50;;
2267;SDS011;11052;43.338;25.502;2024-02-26T08:21:07;1.80;;;1.33;;
2267;SDS011;11052;43.338;25.502;2024-02-26T08:23:36;4.37;;;1.80;;
2267;SDS011;11052;43.338;25.502;2024-02-26T08:26:03;2.90;;;1.97;;
2267;SDS011;11052;43.338;25.502;2024-02-26T08:28:32;3.60;;;1.37;;
2267;SDS011;11052;43.338;25.502;2024-02-26T08:30:59;5.13;;;2.27;;
2267;SDS011;11052;43.338;25.502;2024-02-26T08:33:26;5.50;;;1.97;;
2267;SDS011;11052;43.338;25.502;2024-02-26T08:35:53;2.10;;;1.60;;
2267;SDS011;11052;43.338;25.502;2024-02-26T08:38:20;1.40;;;1.30;;
2267;SDS011;11052;43.338;25.502;2024-02-26T08:40:49;3.37;;;1.20;;
2267;SDS011;11052;43.338;25.502;2024-02-26T08:43:16;2.50;;;1.40;;
2267;SDS011;11052;43.338;25.502;2024-02-26T08:45:44;1.87;;;1.40;;
2267;SDS011;11052;43.338;25.502;2024-02-26T08:48:11;1.00;;;0.70;;
2267;SDS011;11052;43.338;25.502;2024-02-26T08:50:38;1.40;;;1.30;;
2267;SDS011;11052;43.338;25.502;2024-02-26T08:53:05;1.10;;;0.90;;
2267;SDS011;11052;43.338;25.502;2024-02-26T08:55:32;1.27;;;0.97;;
2267;SDS011;11052;43.338;25.502;2024-02-26T08:58:01;0.93;;;0.70;;
2267;SDS011;11052;43.338;25.502;2024-02-26T09:00:28;3.70;;;0.93;;
2267;SDS011;11052;43.338;25.502;2024-02-26T09:02:56;1.97;;;1.00;;
2267;SDS011;11052;43.338;25.502;2024-02-26T09:05:23;1.00;;;0.87;;
2267;SDS011;11052;43.338;25.502;2024-02-26T09:07:50;1.20;;;1.00;;
2267;SDS011;11052;43.338;25.502;2024-02-26T09:10:17;2.20;;;1.33;;
2267;SDS011;11052;43.338;25.502;2024-02-26T09:12:44;2.20;;;0.80;;
2267;SDS011;11052;43.338;25.502;2024-02-26T09:15:13;1.40;;;1.07;;
2267;SDS011;11052;43.338;25.502;2024-02-26T09:17:41;3.37;;;1.20;;
2267;SDS011;11052;43.338;25.502;2024-02-26T09:20:08;1.83;;;1.10;;
2267;SDS011;11052;43.338;25.502;2024-02-26T09:22:36;3.50;;;1.40;;
2267;SDS011;11052;43.338;25.502;2024-02-26T09:25:04;4.97;;;0.80;;
2267;SDS011;11052;43.338;25.502;2024-02-26T09:27:31;1.83;;;1.00;;
2267;SDS011;11052;43.338;25.502;2024-02-26T09:29:58;1.63;;;1.10;;
2267;SDS011;11052;43.338;25.502;2024-02-26T09:32:27;2.90;;;1.10;;
2267;SDS011;11052;43.338;25.502;2024-02-26T09:34:55;1.43;;;1.00;;
2267;SDS011;11052;43.338;25.502;2024-02-26T09:37:22;1.10;;;1.00;;
2267;SDS011;11052;43.338;25.502;2024-02-26T09:39:49;1.00;;;0.87;;
2267;SDS011;11052;43.338;25.502;2024-02-26T09:42:17;1.33;;;0.80;;
2267;SDS011;11052;43.338;25.502;2024-02-26T09:44:45;1.00;;;0.60;;
2267;SDS011;11052;43.338;25.502;2024-02-26T09:47:17;1.20;;;1.00;;
2267;SDS011;11052;43.338;25.502;2024-02-26T09:49:47;0.80;;;0.50;;
2267;SDS011;11052;43.338;25.502;2024-02-26T09:52:15;1.23;;;1.00;;
2267;SDS011;11052;43.338;25.502;2024-02-26T09:54:45;1.00;;;0.70;;
2267;SDS011;11052;43.338;25.502;2024-02-26T09:57:14;2.80;;;0.90;;
2267;SDS011;11052;43.338;25.502;2024-02-26T09:59:43;0.90;;;0.70;;
2267;SDS011;11052;43.338;25.502;2024-02-26T10:02:13;3.30;;;0.83;;
2267;SDS011;11052;43.338;25.502;2024-02-26T10:04:41;1.00;;;0.60;;
2267;SDS011;11052;43.338;25.502;2024-02-26T10:07:10;4.43;;;1.17;;
2267;SDS011;11052;43.338;25.502;2024-02-26T10:09:38;2.13;;;0.90;;
2267;SDS011;11052;43.338;25.502;2024-02-26T10:12:07;3.20;;;1.07;;
2267;SDS011;11052;43.338;25.502;2024-02-26T10:14:37;2.03;;;0.70;;
2267;SDS011;11052;43.338;25.502;2024-02-26T10:17:04;2.40;;;0.87;;
2267;SDS011;11052;43.338;25.502;2024-02-26T10:19:34;0.90;;;0.80;;
2267;SDS011;11052;43.338;25.502;2024-02-26T10:22:01;1.20;;;0.87;;
2267;SDS011;11052;43.338;25.502;2024-02-26T10:24:31;1.30;;;0.80;;
2267;SDS011;11052;43.338;25.502;2024-02-26T10:26:59;1.00;;;0.70;;
2267;SDS011;11052;43.338;25.502;2024-02-26T10:29:26;1.57;;;1.17;;
2267;SDS011;11052;43.338;25.502;2024-02-26T10:31:53;1.23;;;1.03;;
2267;SDS011;11052;43.338;25.502;2024-02-26T10:34:20;0.80;;;0.50;;
2267;SDS011;11052;43.338;25.502;2024-02-26T10:36:48;1.00;;;0.73;;
2267;SDS011;11052;43.338;25.502;2024-02-26T10:39:16;1.07;;;0.80;;
2267;SDS011;11052;43.338;25.502;2024-02-26T10:41:44;1.03;;;0.73;;
2267;SDS011;11052;43.338;25.502;2024-02-26T10:44:11;0.90;;;0.60;;
2267;SDS011;11052;43.338;25.502;2024-02-26T10:46:40;0.90;;;0.57;;
2267;SDS011;11052;43.338;25.502;2024-02-26T10:49:12;1.37;;;0.63;;
2267;SDS011;11052;43.338;25.502;2024-02-26T10:51:41;2.50;;;0.80;;
2267;SDS011;11052;43.338;25.502;2024-02-26T10:54:12;0.90;;;0.60;;
2267;SDS011;11052;43.338;25.502;2024-02-26T10:56:41;1.00;;;0.67;;
2267;SDS011;11052;43.338;25.502;2024-02-26T10:59:11;1.20;;;0.80;;
2267;SDS011;11052;43.338;25.502;2024-02-26T11:01:38;0.90;;;0.50;;
2267;SDS011;11052;43.338;25.502;2024-02-26T11:04:06;1.00;;;0.70;;
2267;SDS011;11052;43.338;25.502;2024-02-26T11:06:36;0.90;;;0.80;;
2267;SDS011;11052;43.338;25.502;2024-02-26T11:09:04;1.00;;;0.70;;
2267;SDS011;11052;43.338;25.502;2024-02-26T11:11:32;1.00;;;0.70;;
2267;SDS011;11052;43.338;25.502;2024-02-26T11:14:01;1.20;;;0.77;;
2267;SDS011;11052;43.338;25.502;2024-02-26T11:16:31;0.90;;;0.60;;
2267;SDS011;11052;43.338;25.502;2024-02-26T11:19:01;1.00;;;0.80;;
2267;SDS011;11052;43.338;25.502;2024-02-26T11:21:29;3.03;;;0.80;;
2267;SDS011;11052;43.338;25.502;2024-02-26T11:24:04;1.50;;;0.80;;
2267;SDS011;11052;43.338;25.502;2024-02-26T11:26:33;1.20;;;0.60;;
2267;SDS011;11052;43.338;25.502;2024-02-26T11:29:02;0.80;;;0.50;;
2267;SDS011;11052;43.338;25.502;2024-02-26T11:31:33;0.90;;;0.60;;
2267;SDS011;11052;43.338;25.502;2024-02-26T11:34:01;1.00;;;0.70;;
2267;SDS011;11052;43.338;25.502;2024-02-26T11:36:28;1.00;;;0.80;;
2267;SDS011;11052;43.338;25.502;2024-02-26T11:38:55;1.20;;;0.73;;
2267;SDS011;11052;43.338;25.502;2024-02-26T11:41:23;1.80;;;1.23;;
2267;SDS011;11052;43.338;25.502;2024-02-26T11:43:50;1.00;;;0.70;;
2267;SDS011;11052;43.338;25.502;2024-02-26T11:46:28;1.00;;;0.63;;
2267;SDS011;11052;43.338;25.502;2024-02-26T11:49:00;1.17;;;0.80;;
2267;SDS011;11052;43.338;25.502;2024-02-26T11:51:28;1.00;;;0.60;;
2267;SDS011;11052;43.338;25.502;2024-02-26T11:53:59;1.27;;;1.07;;
2267;SDS011;11052;43.338;25.502;2024-02-26T11:56:26;1.57;;;1.13;;
2267;SDS011;11052;43.338;25.502;2024-02-26T11:58:58;1.40;;;0.80;;
2267;SDS011;11052;43.338;25.502;2024-02-26T12:01:36;3.03;;;0.80;;
2267;SDS011;11052;43.338;25.502;2024-02-26T12:04:11;1.10;;;1.00;;
2267;SDS011;11052;43.338;25.502;2024-02-26T12:06:43;0.80;;;0.50;;
2267;SDS011;11052;43.338;25.502;2024-02-26T12:09:12;0.90;;;0.50;;
2267;SDS011;11052;43.338;25.502;2024-02-26T12:11:39;1.33;;;0.70;;
2267;SDS011;11052;43.338;25.502;2024-02-26T12:14:09;1.43;;;0.90;;
2267;SDS011;11052;43.338;25.502;2024-02-26T12:16:36;1.50;;;1.10;;
2267;SDS011;11052;43.338;25.502;2024-02-26T12:19:05;1.20;;;0.90;;
2267;SDS011;11052;43.338;25.502;2024-02-26T12:21:35;0.87;;;0.67;;
2267;SDS011;11052;43.338;25.502;2024-02-26T12:24:07;1.40;;;0.83;;
2267;SDS011;11052;43.338;25.502;2024-02-26T12:26:37;1.00;;;0.80;;
2267;SDS011;11052;43.338;25.502;2024-02-26T12:29:05;1.47;;;0.60;;
2267;SDS011;11052;43.338;25.502;2024-02-26T12:31:32;0.90;;;0.70;;
2267;SDS011;11052;43.338;25.502;2024-02-26T12:34:02;1.00;;;0.63;;
2267;SDS011;11052;43.338;25.502;2024-02-26T12:36:29;1.43;;;0.70;;
2267;SDS011;11052;43.338;25.502;2024-02-26T12:38:57;0.80;;;0.53;;
2267;SDS011;11052;43.338;25.502;2024-02-26T12:41:25;0.90;;;0.67;;
2267;SDS011;11052;43.338;25.502;2024-02-26T12:43:53;0.90;;;0.60;;
2267;SDS011;11052;43.338;25.502;2024-02-26T12:46:21;0.90;;;0.60;;
2267;SDS011;11052;43.338;25.502;2024-02-26T12:48:48;1.67;;;0.90;;
2267;SDS011;11052;43.338;25.502;2024-02-26T12:51:15;1.10;;;0.53;;
2267;SDS011;11052;43.338;25.502;2024-02-26T12:53:43;1.57;;;0.70;;
2267;SDS011;11052;43.338;25.502;2024-02-26T12:56:13;0.80;;;0.50;;
2267;SDS011;11052;43.338;25.502;2024-02-26T12:58:40;0.90;;;0.50;;
2267;SDS011;11052;43.338;25.502;2024-02-26T13:01:08;0.90;;;0.60;;
2267;SDS011;11052;43.338;25.502;2024-02-26T13:03:41;2.70;;;0.70;;
2267;SDS011;11052;43.338;25.502;2024-02-26T13:06:08;1.47;;;0.70;;
2267;SDS011;11052;43.338;25.502;2024-02-26T13:08:36;1.00;;;0.50;;
2267;SDS011;11052;43.338;25.502;2024-02-26T13:11:03;4.97;;;0.83;;
2267;SDS011;11052;43.338;25.502;2024-02-26T13:13:32;4.73;;;0.90;;
2267;SDS011;11052;43.338;25.502;2024-02-26T13:16:02;1.00;;;0.80;;
2267;SDS011;11052;43.338;25.502;2024-02-26T13:18:32;0.90;;;0.50;;
2267;SDS011;11052;43.338;25.502;2024-02-26T13:21:08;1.10;;;0.70;;
2267;SDS011;11052;43.338;25.502;2024-02-26T13:23:36;0.87;;;0.60;;
2267;SDS011;11052;43.338;25.502;2024-02-26T13:26:04;0.90;;;0.57;;
2267;SDS011;11052;43.338;25.502;2024-02-26T13:28:32;1.00;;;0.50;;
2267;SDS011;11052;43.338;25.502;2024-02-26T13:31:00;3.57;;;0.70;;
2267;SDS011;11052;43.338;25.502;2024-02-26T13:33:29;1.57;;;0.60;;
2267;SDS011;11052;43.338;25.502;2024-02-26T13:35:57;0.90;;;0.67;;
2267;SDS011;11052;43.338;25.502;2024-02-26T13:38:25;2.60;;;0.60;;
2267;SDS011;11052;43.338;25.502;2024-02-26T13:40:52;1.33;;;0.70;;
2267;SDS011;11052;43.338;25.502;2024-02-26T13:43:19;1.30;;;0.90;;
2267;SDS011;11052;43.338;25.502;2024-02-26T13:45:48;1.50;;;0.90;;
2267;SDS011;11052;43.338;25.502;2024-02-26T13:48:15;1.20;;;0.70;;
2267;SDS011;11052;43.338;25.502;2024-02-26T13:50:42;1.60;;;0.70;;
2267;SDS011;11052;43.338;25.502;2024-02-26T13:53:10;0.97;;;0.63;;
2267;SDS011;11052;43.338;25.502;2024-02-26T13:55:39;0.90;;;0.63;;
2267;SDS011;11052;43.338;25.502;2024-02-26T13:58:08;1.20;;;0.60;;
2267;SDS011;11052;43.338;25.502;2024-02-26T14:00:38;1.10;;;0.70;;
2267;SDS011;11052;43.338;25.502;2024-02-26T14:03:08;1.30;;;0.83;;
2267;SDS011;11052;43.338;25.502;2024-02-26T14:05:35;1.20;;;0.70;;
2267;SDS011;11052;43.338;25.502;2024-02-26T14:08:02;3.17;;;1.07;;
2267;SDS011;11052;43.338;25.502;2024-02-26T14:10:29;0.90;;;0.60;;
2267;SDS011;11052;43.338;25.502;2024-02-26T14:12:57;1.00;;;0.80;;
2267;SDS011;11052;43.338;25.502;2024-02-26T14:15:24;1.43;;;0.73;;
2267;SDS011;11052;43.338;25.502;2024-02-26T14:17:51;0.93;;;0.83;;
2267;SDS011;11052;43.338;25.502;2024-02-26T14:20:23;1.43;;;0.70;;
2267;SDS011;11052;43.338;25.502;2024-02-26T14:22:50;1.80;;;0.70;;
2267;SDS011;11052;43.338;25.502;2024-02-26T14:25:20;1.03;;;0.70;;
2267;SDS011;11052;43.338;25.502;2024-02-26T14:27:47;1.30;;;0.70;;
2267;SDS011;11052;43.338;25.502;2024-02-26T14:30:15;3.97;;;1.30;;
2267;SDS011;11052;43.338;25.502;2024-02-26T14:32:42;2.53;;;1.10;;
2267;SDS011;11052;43.338;25.502;2024-02-26T14:35:09;0.80;;;0.50;;
2267;SDS011;11052;43.338;25.502;2024-02-26T14:37:38;0.80;;;0.50;;
2267;SDS011;11052;43.338;25.502;2024-02-26T14:40:06;1.77;;;0.90;;
2267;SDS011;11052;43.338;25.502;2024-02-26T14:42:33;1.10;;;0.70;;
2267;SDS011;11052;43.338;25.502;2024-02-26T14:45:00;1.20;;;0.80;;
2267;SDS011;11052;43.338;25.502;2024-02-26T14:47:27;0.90;;;0.60;;
2267;SDS011;11052;43.338;25.502;2024-02-26T14:49:55;0.90;;;0.60;;
2267;SDS011;11052;43.338;25.502;2024-02-26T14:52:22;1.50;;;0.70;;